sensor_id;sensor_type;location;lat;lon;timestamp;pressure;altitude;pressure_sealevel;temperature;humidity
76054;BME280;64752;48.870;9.082;2023-06-19T00:01:17;97487.91;;;21.26;57.14
76054;BME280;64752;48.870;9.082;2023-06-19T00:03:43;97489.91;;;21.34;56.31
76054;BME280;64752;48.870;9.082;2023-06-19T00:06:11;97491.59;;;21.45;56.07
76054;BME280;64752;48.870;9.082;2023-06-19T00:08:39;97486.31;;;21.45;56.16
76054;BME280;64752;48.870;9.082;2023-06-19T00:11:07;97482.03;;;21.53;56.44
76054;BME280;64752;48.870;9.082;2023-06-19T00:13:33;97477.34;;;21.57;56.20
76054;BME280;64752;48.870;9.082;2023-06-19T00:16:00;97482.03;;;21.53;56.55
76054;BME280;64752;48.870;9.082;2023-06-19T00:18:26;97476.94;;;21.62;56.32
76054;BME280;64752;48.870;9.082;2023-06-19T00:20:52;97480.66;;;21.59;56.55
76054;BME280;64752;48.870;9.082;2023-06-19T00:23:19;97481.38;;;21.61;56.70
76054;BME280;64752;48.870;9.082;2023-06-19T00:25:45;97489.28;;;21.61;56.62
76054;BME280;64752;48.870;9.082;2023-06-19T00:28:10;97486.50;;;21.63;56.92
76054;BME280;64752;48.870;9.082;2023-06-19T00:30:39;97495.00;;;21.76;56.88
76054;BME280;64752;48.870;9.082;2023-06-19T00:33:05;97482.31;;;21.50;57.49
76054;BME280;64752;48.870;9.082;2023-06-19T00:35:32;97482.75;;;21.55;57.95
76054;BME280;64752;48.870;9.082;2023-06-19T00:37:57;97489.53;;;21.48;58.12
76054;BME280;64752;48.870;9.082;2023-06-19T00:40:30;97496.16;;;21.43;58.80
76054;BME280;64752;48.870;9.082;2023-06-19T00:42:56;97499.47;;;21.35;59.22
76054;BME280;64752;48.870;9.082;2023-06-19T00:45:23;97492.78;;;21.31;59.33
76054;BME280;64752;48.870;9.082;2023-06-19T00:47:50;97499.72;;;21.32;59.33
76054;BME280;64752;48.870;9.082;2023-06-19T00:50:16;97497.53;;;21.37;59.41
76054;BME280;64752;48.870;9.082;2023-06-19T00:52:42;97503.03;;;21.24;60.31
76054;BME280;64752;48.870;9.082;2023-06-19T00:55:08;97509.06;;;21.36;59.97
76054;BME280;64752;48.870;9.082;2023-06-19T00:57:34;97511.63;;;21.47;59.43
76054;BME280;64752;48.870;9.082;2023-06-19T01:00:01;97531.66;;;21.69;58.17
76054;BME280;64752;48.870;9.082;2023-06-19T01:02:29;97559.72;;;21.70;57.46
76054;BME280;64752;48.870;9.082;2023-06-19T01:04:56;97557.00;;;21.91;56.41
76054;BME280;64752;48.870;9.082;2023-06-19T01:07:27;97562.16;;;22.12;55.18
76054;BME280;64752;48.870;9.082;2023-06-19T01:10:09;97560.38;;;22.42;54.74
76054;BME280;64752;48.870;9.082;2023-06-19T01:12:45;97562.19;;;22.71;54.24
76054;BME280;64752;48.870;9.082;2023-06-19T01:15:14;97554.94;;;22.83;54.26
76054;BME280;64752;48.870;9.082;2023-06-19T01:17:40;97560.75;;;22.86;54.59
76054;BME280;64752;48.870;9.082;2023-06-19T01:20:06;97556.47;;;22.85;54.38
76054;BME280;64752;48.870;9.082;2023-06-19T01:22:36;97556.88;;;22.90;54.21
76054;BME280;64752;48.870;9.082;2023-06-19T01:25:01;97563.72;;;22.83;54.47
76054;BME280;64752;48.870;9.082;2023-06-19T01:27:27;97564.25;;;22.87;54.44
76054;BME280;64752;48.870;9.082;2023-06-19T01:30:00;97560.94;;;22.85;54.74
76054;BME280;64752;48.870;9.082;2023-06-19T01:35:08;97569.72;;;22.76;55.94
76054;BME280;64752;48.870;9.082;2023-06-19T01:37:36;97567.06;;;22.76;56.28
76054;BME280;64752;48.870;9.082;2023-06-19T01:40:04;97582.25;;;22.74;56.67
76054;BME280;64752;48.870;9.082;2023-06-19T01:42:32;97587.50;;;22.64;57.04
76054;BME280;64752;48.870;9.082;2023-06-19T01:44:59;97580.97;;;22.58;57.51
76054;BME280;64752;48.870;9.082;2023-06-19T01:47:25;97587.81;;;22.61;58.41
76054;BME280;64752;48.870;9.082;2023-06-19T01:49:50;97588.34;;;22.55;58.85
76054;BME280;64752;48.870;9.082;2023-06-19T01:52:16;97591.69;;;22.57;59.92
76054;BME280;64752;48.870;9.082;2023-06-19T01:54:41;97590.88;;;22.56;59.85
76054;BME280;64752;48.870;9.082;2023-06-19T01:57:07;97597.69;;;22.49;60.46
76054;BME280;64752;48.870;9.082;2023-06-19T01:59:33;97591.97;;;22.44;61.20
76054;BME280;64752;48.870;9.082;2023-06-19T02:01:58;97591.00;;;22.45;61.14
76054;BME280;64752;48.870;9.082;2023-06-19T02:04:23;97595.44;;;22.35;62.04
76054;BME280;64752;48.870;9.082;2023-06-19T02:06:49;97591.53;;;22.29;62.02
76054;BME280;64752;48.870;9.082;2023-06-19T02:09:14;97586.78;;;22.23;62.77
76054;BME280;64752;48.870;9.082;2023-06-19T02:11:40;97583.59;;;22.09;63.37
76054;BME280;64752;48.870;9.082;2023-06-19T02:14:05;97590.94;;;22.06;63.60
76054;BME280;64752;48.870;9.082;2023-06-19T02:16:30;97590.66;;;21.99;64.25
76054;BME280;64752;48.870;9.082;2023-06-19T02:18:56;97597.44;;;21.92;64.62
76054;BME280;64752;48.870;9.082;2023-06-19T02:21:22;97598.66;;;21.78;65.61
76054;BME280;64752;48.870;9.082;2023-06-19T02:23:48;97591.03;;;21.85;65.12
76054;BME280;64752;48.870;9.082;2023-06-19T02:26:13;97591.38;;;21.70;65.60
76054;BME280;64752;48.870;9.082;2023-06-19T02:28:38;97581.69;;;21.71;65.96
76054;BME280;64752;48.870;9.082;2023-06-19T02:31:04;97579.97;;;21.60;66.49
76054;BME280;64752;48.870;9.082;2023-06-19T02:33:29;97575.94;;;21.56;66.81
76054;BME280;64752;48.870;9.082;2023-06-19T02:35:54;97580.13;;;21.59;67.01
76054;BME280;64752;48.870;9.082;2023-06-19T02:38:24;97578.44;;;21.58;67.09
76054;BME280;64752;48.870;9.082;2023-06-19T02:43:58;97583.44;;;21.51;68.18
76054;BME280;64752;48.870;9.082;2023-06-19T02:46:23;97592.59;;;21.47;68.81
76054;BME280;64752;48.870;9.082;2023-06-19T02:52:11;97593.91;;;21.10;72.38
76054;BME280;64752;48.870;9.082;2023-06-19T02:54:36;97595.16;;;20.95;74.72
76054;BME280;64752;48.870;9.082;2023-06-19T02:57:02;97596.41;;;20.91;73.86
76054;BME280;64752;48.870;9.082;2023-06-19T02:59:27;97590.44;;;20.89;73.80
76054;BME280;64752;48.870;9.082;2023-06-19T03:01:52;97602.50;;;20.91;72.88
76054;BME280;64752;48.870;9.082;2023-06-19T03:04:18;97604.34;;;21.01;72.24
76054;BME280;64752;48.870;9.082;2023-06-19T03:06:43;97601.88;;;20.99;72.34
76054;BME280;64752;48.870;9.082;2023-06-19T03:09:08;97606.16;;;21.00;71.79
76054;BME280;64752;48.870;9.082;2023-06-19T03:11:40;97611.06;;;21.05;71.98
76054;BME280;64752;48.870;9.082;2023-06-19T03:14:06;97615.47;;;21.04;70.74
76054;BME280;64752;48.870;9.082;2023-06-19T03:16:35;97610.66;;;21.09;71.44
76054;BME280;64752;48.870;9.082;2023-06-19T03:19:01;97615.16;;;21.18;71.38
76054;BME280;64752;48.870;9.082;2023-06-19T03:21:26;97621.00;;;21.22;71.05
76054;BME280;64752;48.870;9.082;2023-06-19T03:23:52;97620.88;;;21.24;70.25
76054;BME280;64752;48.870;9.082;2023-06-19T03:26:19;97625.47;;;21.22;70.17
76054;BME280;64752;48.870;9.082;2023-06-19T03:28:44;97632.00;;;21.27;70.00
76054;BME280;64752;48.870;9.082;2023-06-19T03:31:11;97634.31;;;21.42;68.50
76054;BME280;64752;48.870;9.082;2023-06-19T03:33:36;97635.34;;;21.50;67.53
76054;BME280;64752;48.870;9.082;2023-06-19T03:36:02;97639.97;;;21.58;67.00
76054;BME280;64752;48.870;9.082;2023-06-19T03:38:28;97641.75;;;21.58;67.27
76054;BME280;64752;48.870;9.082;2023-06-19T03:40:54;97638.69;;;21.52;67.35
76054;BME280;64752;48.870;9.082;2023-06-19T03:43:19;97640.06;;;21.47;67.83
76054;BME280;64752;48.870;9.082;2023-06-19T03:45:44;97645.47;;;21.45;67.84
76054;BME280;64752;48.870;9.082;2023-06-19T03:48:10;97640.41;;;21.42;67.98
76054;BME280;64752;48.870;9.082;2023-06-19T03:50:35;97655.16;;;21.45;67.67
76054;BME280;64752;48.870;9.082;2023-06-19T03:53:00;97653.09;;;21.48;67.38
76054;BME280;64752;48.870;9.082;2023-06-19T03:55:26;97654.25;;;21.55;66.47
76054;BME280;64752;48.870;9.082;2023-06-19T03:57:51;97655.69;;;21.60;65.88
76054;BME280;64752;48.870;9.082;2023-06-19T04:00:18;97651.34;;;21.59;65.66
76054;BME280;64752;48.870;9.082;2023-06-19T04:02:44;97651.63;;;21.55;65.86
76054;BME280;64752;48.870;9.082;2023-06-19T04:05:13;97655.25;;;21.54;65.49
76054;BME280;64752;48.870;9.082;2023-06-19T04:07:39;97649.50;;;21.49;65.57
76054;BME280;64752;48.870;9.082;2023-06-19T04:10:04;97657.88;;;21.54;65.89
76054;BME280;64752;48.870;9.082;2023-06-19T04:12:30;97671.31;;;21.51;67.00
76054;BME280;64752;48.870;9.082;2023-06-19T04:14:55;97673.88;;;21.42;67.52
76054;BME280;64752;48.870;9.082;2023-06-19T04:17:20;97672.31;;;21.39;68.30
76054;BME280;64752;48.870;9.082;2023-06-19T04:19:46;97670.34;;;21.31;69.19
76054;BME280;64752;48.870;9.082;2023-06-19T04:22:11;97673.44;;;21.36;69.12
76054;BME280;64752;48.870;9.082;2023-06-19T04:24:37;97678.78;;;21.25;70.29
76054;BME280;64752;48.870;9.082;2023-06-19T04:27:02;97679.44;;;21.17;70.86
76054;BME280;64752;48.870;9.082;2023-06-19T04:29:28;97687.47;;;21.16;71.78
76054;BME280;64752;48.870;9.082;2023-06-19T04:31:58;97680.63;;;21.13;72.34
76054;BME280;64752;48.870;9.082;2023-06-19T04:34:23;97675.88;;;21.07;72.70
76054;BME280;64752;48.870;9.082;2023-06-19T04:36:49;97677.72;;;21.37;71.97
76054;BME280;64752;48.870;9.082;2023-06-19T04:39:16;97679.81;;;21.55;71.02
76054;BME280;64752;48.870;9.082;2023-06-19T04:41:45;97674.88;;;22.02;69.04
76054;BME280;64752;48.870;9.082;2023-06-19T04:44:11;97679.97;;;22.35;68.03
76054;BME280;64752;48.870;9.082;2023-06-19T04:46:40;97674.50;;;22.17;68.63
76054;BME280;64752;48.870;9.082;2023-06-19T04:49:05;97676.53;;;22.03;69.46
76054;BME280;64752;48.870;9.082;2023-06-19T04:51:31;97678.34;;;22.33;68.29
76054;BME280;64752;48.870;9.082;2023-06-19T04:53:57;97687.69;;;22.96;65.70
76054;BME280;64752;48.870;9.082;2023-06-19T04:56:26;97681.13;;;23.49;64.21
76054;BME280;64752;48.870;9.082;2023-06-19T04:58:51;97676.09;;;23.46;63.39
76054;BME280;64752;48.870;9.082;2023-06-19T05:01:17;97687.63;;;24.02;61.65
76054;BME280;64752;48.870;9.082;2023-06-19T05:03:44;97677.13;;;24.10;61.76
76054;BME280;64752;48.870;9.082;2023-06-19T05:06:11;97679.25;;;24.07;62.30
76054;BME280;64752;48.870;9.082;2023-06-19T05:08:36;97693.91;;;24.29;61.35
76054;BME280;64752;48.870;9.082;2023-06-19T05:11:02;97691.41;;;24.27;61.35
76054;BME280;64752;48.870;9.082;2023-06-19T05:13:27;97689.06;;;23.49;63.77
76054;BME280;64752;48.870;9.082;2023-06-19T05:15:52;97685.44;;;23.97;62.32
76054;BME280;64752;48.870;9.082;2023-06-19T05:18:18;97682.53;;;24.18;61.74
76054;BME280;64752;48.870;9.082;2023-06-19T05:20:44;97692.41;;;23.51;63.52
76054;BME280;64752;48.870;9.082;2023-06-19T05:23:09;97691.19;;;23.26;64.24
76054;BME280;64752;48.870;9.082;2023-06-19T05:25:35;97695.94;;;23.13;65.99
76054;BME280;64752;48.870;9.082;2023-06-19T05:28:00;97707.91;;;23.07;66.22
76054;BME280;64752;48.870;9.082;2023-06-19T05:30:26;97698.44;;;23.04;65.77
76054;BME280;64752;48.870;9.082;2023-06-19T05:32:51;97704.53;;;22.95;67.06
76054;BME280;64752;48.870;9.082;2023-06-19T05:35:19;97703.44;;;22.98;67.22
76054;BME280;64752;48.870;9.082;2023-06-19T05:37:45;97711.78;;;23.22;66.37
76054;BME280;64752;48.870;9.082;2023-06-19T05:40:10;97719.72;;;23.42;65.60
76054;BME280;64752;48.870;9.082;2023-06-19T05:42:36;97727.59;;;23.61;65.29
76054;BME280;64752;48.870;9.082;2023-06-19T05:45:03;97730.00;;;23.45;65.93
76054;BME280;64752;48.870;9.082;2023-06-19T05:47:28;97722.06;;;23.55;65.18
76054;BME280;64752;48.870;9.082;2023-06-19T05:49:56;97719.94;;;23.68;64.82
76054;BME280;64752;48.870;9.082;2023-06-19T05:52:21;97722.53;;;23.78;64.30
76054;BME280;64752;48.870;9.082;2023-06-19T05:54:47;97720.63;;;23.70;64.77
76054;BME280;64752;48.870;9.082;2023-06-19T05:57:12;97724.50;;;23.76;65.06
76054;BME280;64752;48.870;9.082;2023-06-19T05:59:38;97726.31;;;23.85;64.95
76054;BME280;64752;48.870;9.082;2023-06-19T06:02:04;97724.63;;;23.74;64.67
76054;BME280;64752;48.870;9.082;2023-06-19T06:04:30;97727.16;;;24.13;63.57
76054;BME280;64752;48.870;9.082;2023-06-19T06:06:56;97727.69;;;24.54;62.11
76054;BME280;64752;48.870;9.082;2023-06-19T06:09:22;97729.31;;;24.83;60.67
76054;BME280;64752;48.870;9.082;2023-06-19T06:11:47;97733.09;;;24.80;60.76
76054;BME280;64752;48.870;9.082;2023-06-19T06:14:13;97735.22;;;25.31;59.31
76054;BME280;64752;48.870;9.082;2023-06-19T06:16:39;97733.31;;;25.23;59.26
76054;BME280;64752;48.870;9.082;2023-06-19T06:19:04;97733.66;;;25.02;60.07
76054;BME280;64752;48.870;9.082;2023-06-19T06:21:29;97732.19;;;24.72;60.32
76054;BME280;64752;48.870;9.082;2023-06-19T06:23:55;97738.38;;;25.52;58.17
76054;BME280;64752;48.870;9.082;2023-06-19T06:26:20;97739.56;;;25.32;58.24
76054;BME280;64752;48.870;9.082;2023-06-19T06:28:46;97741.00;;;25.08;60.06
76054;BME280;64752;48.870;9.082;2023-06-19T06:31:12;97740.97;;;24.90;60.18
76054;BME280;64752;48.870;9.082;2023-06-19T06:33:37;97752.66;;;25.15;59.39
76054;BME280;64752;48.870;9.082;2023-06-19T06:36:02;97763.75;;;25.29;59.38
76054;BME280;64752;48.870;9.082;2023-06-19T06:38:28;97766.00;;;26.46;55.46
76054;BME280;64752;48.870;9.082;2023-06-19T06:40:53;97773.72;;;26.23;55.51
76054;BME280;64752;48.870;9.082;2023-06-19T06:43:19;97776.78;;;26.71;54.75
76054;BME280;64752;48.870;9.082;2023-06-19T06:45:44;97775.88;;;27.71;51.44
76054;BME280;64752;48.870;9.082;2023-06-19T06:48:09;97776.69;;;27.87;50.49
76054;BME280;64752;48.870;9.082;2023-06-19T06:50:35;97778.44;;;28.76;48.74
76054;BME280;64752;48.870;9.082;2023-06-19T06:53:00;97773.44;;;28.73;47.88
76054;BME280;64752;48.870;9.082;2023-06-19T06:55:26;97785.88;;;27.93;49.76
76054;BME280;64752;48.870;9.082;2023-06-19T06:57:51;97784.38;;;27.91;49.84
76054;BME280;64752;48.870;9.082;2023-06-19T07:00:17;97781.69;;;27.25;50.49
76054;BME280;64752;48.870;9.082;2023-06-19T07:02:43;97780.81;;;26.91;52.08
76054;BME280;64752;48.870;9.082;2023-06-19T07:05:09;97779.47;;;26.87;51.12
76054;BME280;64752;48.870;9.082;2023-06-19T07:07:35;97790.34;;;26.60;53.24
76054;BME280;64752;48.870;9.082;2023-06-19T07:10:00;97797.84;;;26.64;53.24
76054;BME280;64752;48.870;9.082;2023-06-19T07:12:26;97793.72;;;26.70;52.63
76054;BME280;64752;48.870;9.082;2023-06-19T07:14:55;97794.50;;;27.13;51.78
76054;BME280;64752;48.870;9.082;2023-06-19T07:17:20;97795.72;;;28.57;47.71
76054;BME280;64752;48.870;9.082;2023-06-19T07:19:46;97788.16;;;30.22;43.87
76054;BME280;64752;48.870;9.082;2023-06-19T07:22:12;97790.13;;;29.29;45.76
76054;BME280;64752;48.870;9.082;2023-06-19T07:24:37;97797.47;;;30.41;43.62
76054;BME280;64752;48.870;9.082;2023-06-19T07:27:03;97798.91;;;31.25;41.66
76054;BME280;64752;48.870;9.082;2023-06-19T07:29:29;97803.19;;;31.90;39.99
76054;BME280;64752;48.870;9.082;2023-06-19T07:31:54;97806.38;;;30.78;41.75
76054;BME280;64752;48.870;9.082;2023-06-19T07:34:20;97800.41;;;29.40;45.12
76054;BME280;64752;48.870;9.082;2023-06-19T07:36:46;97811.38;;;28.52;47.16
76054;BME280;64752;48.870;9.082;2023-06-19T07:39:12;97814.69;;;27.48;49.44
76054;BME280;64752;48.870;9.082;2023-06-19T07:41:37;97806.34;;;28.01;48.67
76054;BME280;64752;48.870;9.082;2023-06-19T07:44:03;97813.16;;;28.12;48.61
76054;BME280;64752;48.870;9.082;2023-06-19T07:46:28;97815.78;;;29.99;44.76
76054;BME280;64752;48.870;9.082;2023-06-19T07:48:54;97825.63;;;30.52;43.89
76054;BME280;64752;48.870;9.082;2023-06-19T07:51:20;97817.66;;;31.46;40.83
76054;BME280;64752;48.870;9.082;2023-06-19T07:53:45;97824.75;;;32.32;39.00
76054;BME280;64752;48.870;9.082;2023-06-19T07:56:11;97821.56;;;31.65;40.44
76054;BME280;64752;48.870;9.082;2023-06-19T07:58:36;97817.69;;;32.24;38.55
76054;BME280;64752;48.870;9.082;2023-06-19T08:01:01;97815.63;;;33.10;37.21
76054;BME280;64752;48.870;9.082;2023-06-19T08:03:27;97812.97;;;32.26;37.93
76054;BME280;64752;48.870;9.082;2023-06-19T08:05:53;97812.31;;;31.96;39.64
76054;BME280;64752;48.870;9.082;2023-06-19T08:08:18;97812.84;;;29.94;44.33
76054;BME280;64752;48.870;9.082;2023-06-19T08:10:43;97807.19;;;31.30;40.87
76054;BME280;64752;48.870;9.082;2023-06-19T08:13:09;97815.63;;;31.27;41.38
76054;BME280;64752;48.870;9.082;2023-06-19T08:15:36;97812.28;;;32.94;37.70
76054;BME280;64752;48.870;9.082;2023-06-19T08:18:02;97815.88;;;33.28;37.32
76054;BME280;64752;48.870;9.082;2023-06-19T08:20:27;97816.47;;;32.62;38.67
76054;BME280;64752;48.870;9.082;2023-06-19T08:22:53;97825.28;;;33.72;35.95
76054;BME280;64752;48.870;9.082;2023-06-19T08:25:18;97820.00;;;33.17;37.08
76054;BME280;64752;48.870;9.082;2023-06-19T08:27:43;97819.50;;;34.81;33.65
76054;BME280;64752;48.870;9.082;2023-06-19T08:30:11;97811.63;;;35.88;31.88
76054;BME280;64752;48.870;9.082;2023-06-19T08:32:36;97805.53;;;37.22;29.03
76054;BME280;64752;48.870;9.082;2023-06-19T08:35:02;97812.75;;;38.06;27.95
76054;BME280;64752;48.870;9.082;2023-06-19T08:37:28;97811.41;;;36.08;29.95
76054;BME280;64752;48.870;9.082;2023-06-19T08:39:53;97802.91;;;38.11;28.90
76054;BME280;64752;48.870;9.082;2023-06-19T08:42:20;97800.00;;;38.53;27.88
76054;BME280;64752;48.870;9.082;2023-06-19T08:44:48;97808.66;;;34.94;32.35
76054;BME280;64752;48.870;9.082;2023-06-19T08:47:14;97797.56;;;35.47;31.81
76054;BME280;64752;48.870;9.082;2023-06-19T08:49:42;97797.16;;;35.50;31.59
76054;BME280;64752;48.870;9.082;2023-06-19T08:52:08;97802.38;;;36.58;30.27
76054;BME280;64752;48.870;9.082;2023-06-19T08:54:33;97809.91;;;37.65;29.42
76054;BME280;64752;48.870;9.082;2023-06-19T08:57:02;97801.97;;;39.10;27.33
76054;BME280;64752;48.870;9.082;2023-06-19T08:59:28;97804.03;;;39.03;27.59
76054;BME280;64752;48.870;9.082;2023-06-19T09:01:54;97797.28;;;38.65;28.17
76054;BME280;64752;48.870;9.082;2023-06-19T09:04:24;97800.88;;;37.11;29.48
76054;BME280;64752;48.870;9.082;2023-06-19T09:06:54;97795.75;;;36.17;31.12
76054;BME280;64752;48.870;9.082;2023-06-19T09:09:25;97789.41;;;37.57;28.74
76054;BME280;64752;48.870;9.082;2023-06-19T09:14:35;97792.34;;;35.52;31.94
76054;BME280;64752;48.870;9.082;2023-06-19T09:17:06;97794.06;;;36.78;30.25
76054;BME280;64752;48.870;9.082;2023-06-19T09:19:33;97793.41;;;36.45;31.61
76054;BME280;64752;48.870;9.082;2023-06-19T09:22:01;97798.56;;;37.14;30.82
76054;BME280;64752;48.870;9.082;2023-06-19T09:24:39;97800.59;;;38.96;28.59
76054;BME280;64752;48.870;9.082;2023-06-19T09:27:16;97800.56;;;39.87;27.46
76054;BME280;64752;48.870;9.082;2023-06-19T09:29:50;97792.16;;;38.28;28.82
76054;BME280;64752;48.870;9.082;2023-06-19T09:32:19;97791.81;;;38.25;28.90
76054;BME280;64752;48.870;9.082;2023-06-19T09:34:50;97795.28;;;38.49;29.42
76054;BME280;64752;48.870;9.082;2023-06-19T09:37:22;97788.72;;;38.85;29.07
76054;BME280;64752;48.870;9.082;2023-06-19T09:39:53;97793.00;;;41.17;25.63
76054;BME280;64752;48.870;9.082;2023-06-19T09:42:25;97792.25;;;40.11;26.15
76054;BME280;64752;48.870;9.082;2023-06-19T09:44:52;97790.66;;;40.76;26.04
76054;BME280;64752;48.870;9.082;2023-06-19T09:47:22;97788.13;;;41.46;25.68
76054;BME280;64752;48.870;9.082;2023-06-19T09:49:56;97787.56;;;38.81;28.90
76054;BME280;64752;48.870;9.082;2023-06-19T09:52:22;97782.44;;;36.77;31.28
76054;BME280;64752;48.870;9.082;2023-06-19T09:54:52;97780.91;;;36.81;31.34
76054;BME280;64752;48.870;9.082;2023-06-19T09:57:23;97786.00;;;35.72;32.88
76054;BME280;64752;48.870;9.082;2023-06-19T09:59:53;97783.22;;;33.31;36.79
76054;BME280;64752;48.870;9.082;2023-06-19T10:02:20;97786.88;;;34.44;34.68
76054;BME280;64752;48.870;9.082;2023-06-19T10:04:55;97783.94;;;35.42;33.28
76054;BME280;64752;48.870;9.082;2023-06-19T10:07:26;97783.75;;;35.69;33.25
76054;BME280;64752;48.870;9.082;2023-06-19T10:12:45;97792.13;;;39.04;29.35
76054;BME280;64752;48.870;9.082;2023-06-19T10:15:22;97787.63;;;38.69;28.43
76054;BME280;64752;48.870;9.082;2023-06-19T10:17:50;97780.28;;;37.28;30.68
76054;BME280;64752;48.870;9.082;2023-06-19T10:20:33;97785.09;;;37.68;29.79
76054;BME280;64752;48.870;9.082;2023-06-19T10:23:01;97781.59;;;36.58;32.42
76054;BME280;64752;48.870;9.082;2023-06-19T10:25:29;97788.00;;;36.45;32.35
76054;BME280;64752;48.870;9.082;2023-06-19T10:27:57;97790.63;;;38.21;29.77
76054;BME280;64752;48.870;9.082;2023-06-19T10:30:23;97788.00;;;36.45;32.18
76054;BME280;64752;48.870;9.082;2023-06-19T10:32:49;97786.41;;;36.56;31.96
76054;BME280;64752;48.870;9.082;2023-06-19T10:35:15;97784.91;;;36.79;32.03
76054;BME280;64752;48.870;9.082;2023-06-19T10:37:42;97786.06;;;37.32;31.34
76054;BME280;64752;48.870;9.082;2023-06-19T10:40:08;97779.66;;;37.92;30.14
76054;BME280;64752;48.870;9.082;2023-06-19T10:42:36;97770.66;;;36.72;31.26
76054;BME280;64752;48.870;9.082;2023-06-19T10:45:06;97776.09;;;34.95;33.83
76054;BME280;64752;48.870;9.082;2023-06-19T10:47:32;97772.44;;;37.50;30.33
76054;BME280;64752;48.870;9.082;2023-06-19T10:49:58;97767.75;;;36.36;32.13
76054;BME280;64752;48.870;9.082;2023-06-19T10:52:24;97766.44;;;37.06;31.23
76054;BME280;64752;48.870;9.082;2023-06-19T10:54:58;97762.72;;;37.85;30.46
76054;BME280;64752;48.870;9.082;2023-06-19T10:57:30;97760.50;;;38.05;29.90
76054;BME280;64752;48.870;9.082;2023-06-19T10:59:57;97762.97;;;37.95;30.11
76054;BME280;64752;48.870;9.082;2023-06-19T11:02:23;97761.50;;;38.40;29.87
76054;BME280;64752;48.870;9.082;2023-06-19T11:04:52;97750.34;;;37.11;31.84
76054;BME280;64752;48.870;9.082;2023-06-19T11:07:18;97760.91;;;37.01;31.59
76054;BME280;64752;48.870;9.082;2023-06-19T11:09:43;97754.94;;;36.80;31.55
76054;BME280;64752;48.870;9.082;2023-06-19T11:12:09;97757.97;;;38.51;29.17
76054;BME280;64752;48.870;9.082;2023-06-19T11:14:34;97758.78;;;40.72;26.47
76054;BME280;64752;48.870;9.082;2023-06-19T11:17:05;97751.25;;;39.11;28.75
76054;BME280;64752;48.870;9.082;2023-06-19T11:19:32;97753.53;;;41.41;25.20
76054;BME280;64752;48.870;9.082;2023-06-19T11:22:01;97742.56;;;38.28;29.28
76054;BME280;64752;48.870;9.082;2023-06-19T11:24:28;97742.75;;;40.48;26.65
76054;BME280;64752;48.870;9.082;2023-06-19T11:26:56;97749.38;;;41.07;25.22
76054;BME280;64752;48.870;9.082;2023-06-19T11:29:29;97739.31;;;40.14;26.76
76054;BME280;64752;48.870;9.082;2023-06-19T11:32:13;97745.69;;;39.68;27.93
76054;BME280;64752;48.870;9.082;2023-06-19T11:34:39;97748.00;;;38.68;29.43
76054;BME280;64752;48.870;9.082;2023-06-19T11:39:37;97737.31;;;39.70;27.60
76054;BME280;64752;48.870;9.082;2023-06-19T11:42:03;97747.94;;;41.26;24.95
76054;BME280;64752;48.870;9.082;2023-06-19T11:44:28;97754.78;;;41.29;26.05
76054;BME280;64752;48.870;9.082;2023-06-19T11:46:57;97735.63;;;40.25;27.06
76054;BME280;64752;48.870;9.082;2023-06-19T11:49:26;97737.88;;;37.88;29.62
76054;BME280;64752;48.870;9.082;2023-06-19T11:51:51;97741.16;;;36.52;31.74
76054;BME280;64752;48.870;9.082;2023-06-19T11:54:16;97734.03;;;36.39;31.38
76054;BME280;64752;48.870;9.082;2023-06-19T11:56:46;97730.91;;;36.23;31.89
76054;BME280;64752;48.870;9.082;2023-06-19T11:59:12;97737.47;;;36.09;32.17
76054;BME280;64752;48.870;9.082;2023-06-19T12:01:39;97729.88;;;36.73;31.57
76054;BME280;64752;48.870;9.082;2023-06-19T12:04:05;97732.94;;;37.85;29.88
76054;BME280;64752;48.870;9.082;2023-06-19T12:06:30;97728.16;;;39.08;28.07
76054;BME280;64752;48.870;9.082;2023-06-19T12:08:56;97735.59;;;38.44;29.27
76054;BME280;64752;48.870;9.082;2023-06-19T12:11:22;97721.97;;;37.91;29.68
76054;BME280;64752;48.870;9.082;2023-06-19T12:13:48;97716.53;;;36.90;31.47
76054;BME280;64752;48.870;9.082;2023-06-19T12:16:14;97722.91;;;39.36;27.21
76054;BME280;64752;48.870;9.082;2023-06-19T12:18:40;97723.72;;;37.38;30.20
76054;BME280;64752;48.870;9.082;2023-06-19T12:21:06;97720.28;;;37.31;30.67
76054;BME280;64752;48.870;9.082;2023-06-19T12:23:32;97712.91;;;35.48;32.36
76054;BME280;64752;48.870;9.082;2023-06-19T12:25:57;97713.44;;;34.75;33.87
76054;BME280;64752;48.870;9.082;2023-06-19T12:28:22;97708.38;;;35.93;32.40
76054;BME280;64752;48.870;9.082;2023-06-19T12:30:48;97712.41;;;38.24;29.37
76054;BME280;64752;48.870;9.082;2023-06-19T12:33:16;97709.34;;;39.36;28.00
76054;BME280;64752;48.870;9.082;2023-06-19T12:35:43;97705.66;;;38.79;27.65
76054;BME280;64752;48.870;9.082;2023-06-19T12:38:08;97702.81;;;37.81;28.99
76054;BME280;64752;48.870;9.082;2023-06-19T12:40:35;97711.75;;;41.26;25.99
76054;BME280;64752;48.870;9.082;2023-06-19T12:43:01;97717.38;;;41.94;25.68
76054;BME280;64752;48.870;9.082;2023-06-19T12:45:26;97711.22;;;40.74;26.37
76054;BME280;64752;48.870;9.082;2023-06-19T12:47:51;97706.00;;;40.95;25.49
76054;BME280;64752;48.870;9.082;2023-06-19T12:50:17;97708.53;;;40.52;26.87
76054;BME280;64752;48.870;9.082;2023-06-19T12:52:42;97696.63;;;39.92;26.86
76054;BME280;64752;48.870;9.082;2023-06-19T12:55:07;97695.59;;;39.76;26.67
76054;BME280;64752;48.870;9.082;2023-06-19T12:57:33;97699.31;;;39.53;27.87
76054;BME280;64752;48.870;9.082;2023-06-19T12:59:59;97694.16;;;40.13;27.06
76054;BME280;64752;48.870;9.082;2023-06-19T13:02:24;97687.22;;;39.10;27.94
76054;BME280;64752;48.870;9.082;2023-06-19T13:04:49;97688.13;;;40.27;27.10
76054;BME280;64752;48.870;9.082;2023-06-19T13:07:15;97687.53;;;40.47;27.04
76054;BME280;64752;48.870;9.082;2023-06-19T13:09:40;97681.63;;;39.33;27.78
76054;BME280;64752;48.870;9.082;2023-06-19T13:12:06;97682.09;;;40.03;27.42
76054;BME280;64752;48.870;9.082;2023-06-19T13:14:32;97674.56;;;39.16;28.36